sensor_id;sensor_type;location;lat;lon;timestamp;pressure;altitude;pressure_sealevel;temperature;humidity
67545;BME280;54380;47.770;11.150;2022-12-18T00:01:40;95735.63;;;-1.63;70.80
67545;BME280;54380;47.770;11.150;2022-12-18T00:04:07;95732.16;;;-1.72;70.87
67545;BME280;54380;47.770;11.150;2022-12-18T00:06:39;95732.00;;;-1.79;70.58
67545;BME280;54380;47.770;11.150;2022-12-18T00:09:07;95736.81;;;-1.84;71.02
67545;BME280;54380;47.770;11.150;2022-12-18T00:11:33;95736.28;;;-1.87;71.13
67545;BME280;54380;47.770;11.150;2022-12-18T00:14:00;95734.66;;;-1.88;71.12
67545;BME280;54380;47.770;11.150;2022-12-18T00:16:27;95734.66;;;-1.88;71.73
67545;BME280;54380;47.770;11.150;2022-12-18T00:18:57;95735.34;;;-1.86;71.93
67545;BME280;54380;47.770;11.150;2022-12-18T00:21:23;95745.69;;;-1.86;71.13
67545;BME280;54380;47.770;11.150;2022-12-18T00:23:50;95757.47;;;-1.92;70.40
67545;BME280;54380;47.770;11.150;2022-12-18T00:26:20;95755.31;;;-1.96;70.07
67545;BME280;54380;47.770;11.150;2022-12-18T00:28:51;95756.13;;;-1.96;70.72
67545;BME280;54380;47.770;11.150;2022-12-18T00:31:19;95764.03;;;-1.98;70.90
67545;BME280;54380;47.770;11.150;2022-12-18T00:33:46;95763.06;;;-1.96;70.94
67545;BME280;54380;47.770;11.150;2022-12-18T00:36:16;95760.63;;;-1.98;71.39
67545;BME280;54380;47.770;11.150;2022-12-18T00:38:44;95759.69;;;-1.97;71.72
67545;BME280;54380;47.770;11.150;2022-12-18T00:41:11;95756.13;;;-1.96;70.97
67545;BME280;54380;47.770;11.150;2022-12-18T00:43:38;95759.38;;;-1.94;71.18
67545;BME280;54380;47.770;11.150;2022-12-18T00:46:05;95765.34;;;-1.93;71.17
67545;BME280;54380;47.770;11.150;2022-12-18T00:48:32;95748.06;;;-1.93;71.60
67545;BME280;54380;47.770;11.150;2022-12-18T00:50:59;95759.88;;;-1.90;71.61
67545;BME280;54380;47.770;11.150;2022-12-18T00:53:26;95769.13;;;-1.88;72.12
67545;BME280;54380;47.770;11.150;2022-12-18T00:55:54;95773.47;;;-1.88;72.21
67545;BME280;54380;47.770;11.150;2022-12-18T00:58:21;95775.41;;;-1.90;71.26
67545;BME280;54380;47.770;11.150;2022-12-18T01:00:47;95774.72;;;-1.92;71.39
67545;BME280;54380;47.770;11.150;2022-12-18T01:03:14;95779.09;;;-1.93;70.98
67545;BME280;54380;47.770;11.150;2022-12-18T01:05:42;95782.81;;;-1.95;71.50
67545;BME280;54380;47.770;11.150;2022-12-18T01:08:10;95784.72;;;-1.98;71.43
67545;BME280;54380;47.770;11.150;2022-12-18T01:10:40;95777.94;;;-1.99;70.96
67545;BME280;54380;47.770;11.150;2022-12-18T01:13:07;95785.31;;;-2.04;70.99
67545;BME280;54380;47.770;11.150;2022-12-18T01:15:35;95789.03;;;-2.06;70.67
67545;BME280;54380;47.770;11.150;2022-12-18T01:18:01;95783.50;;;-2.11;69.90
67545;BME280;54380;47.770;11.150;2022-12-18T01:20:28;95802.50;;;-2.21;68.05
67545;BME280;54380;47.770;11.150;2022-12-18T01:22:54;95815.00;;;-2.34;67.71
67545;BME280;54380;47.770;11.150;2022-12-18T01:25:21;95812.97;;;-2.40;68.46
67545;BME280;54380;47.770;11.150;2022-12-18T01:27:51;95810.84;;;-2.45;69.58
67545;BME280;54380;47.770;11.150;2022-12-18T01:30:17;95817.63;;;-2.44;70.22
67545;BME280;54380;47.770;11.150;2022-12-18T01:32:44;95810.56;;;-2.41;70.54
67545;BME280;54380;47.770;11.150;2022-12-18T01:35:10;95812.16;;;-2.40;70.50
67545;BME280;54380;47.770;11.150;2022-12-18T01:37:37;95819.91;;;-2.40;69.27
67545;BME280;54380;47.770;11.150;2022-12-18T01:40:04;95828.94;;;-2.45;68.78
67545;BME280;54380;47.770;11.150;2022-12-18T01:42:30;95829.06;;;-2.46;70.03
67545;BME280;54380;47.770;11.150;2022-12-18T01:45:06;95829.88;;;-2.46;70.97
67545;BME280;54380;47.770;11.150;2022-12-18T01:47:35;95824.41;;;-2.43;70.58
67545;BME280;54380;47.770;11.150;2022-12-18T01:50:05;95833.81;;;-2.41;71.10
67545;BME280;54380;47.770;11.150;2022-12-18T01:52:32;95826.56;;;-2.38;71.97
67545;BME280;54380;47.770;11.150;2022-12-18T01:54:59;95816.75;;;-2.34;72.64
67545;BME280;54380;47.770;11.150;2022-12-18T01:57:27;95824.88;;;-2.29;73.46
67545;BME280;54380;47.770;11.150;2022-12-18T01:59:55;95822.66;;;-2.24;72.67
67545;BME280;54380;47.770;11.150;2022-12-18T02:02:24;95827.69;;;-2.23;73.45
67545;BME280;54380;47.770;11.150;2022-12-18T02:04:53;95821.41;;;-2.20;73.63
67545;BME280;54380;47.770;11.150;2022-12-18T02:07:21;95837.59;;;-2.18;73.56
67545;BME280;54380;47.770;11.150;2022-12-18T02:09:50;95835.66;;;-2.16;73.24
67545;BME280;54380;47.770;11.150;2022-12-18T02:12:21;95828.56;;;-2.14;73.15
67545;BME280;54380;47.770;11.150;2022-12-18T02:14:50;95830.22;;;-2.13;73.23
67545;BME280;54380;47.770;11.150;2022-12-18T02:17:21;95821.78;;;-2.15;73.38
67545;BME280;54380;47.770;11.150;2022-12-18T02:19:54;95812.38;;;-2.16;73.44
67545;BME280;54380;47.770;11.150;2022-12-18T02:22:26;95810.25;;;-2.21;72.92
67545;BME280;54380;47.770;11.150;2022-12-18T02:25:00;95813.94;;;-2.23;72.90
67545;BME280;54380;47.770;11.150;2022-12-18T02:27:32;95815.06;;;-2.26;73.04
67545;BME280;54380;47.770;11.150;2022-12-18T02:30:00;95818.75;;;-2.28;72.66
67545;BME280;54380;47.770;11.150;2022-12-18T02:32:28;95817.41;;;-2.32;72.47
67545;BME280;54380;47.770;11.150;2022-12-18T02:34:57;95808.97;;;-2.34;72.35
67545;BME280;54380;47.770;11.150;2022-12-18T02:37:26;95804.41;;;-2.40;71.09
67545;BME280;54380;47.770;11.150;2022-12-18T02:39:54;95818.06;;;-2.48;70.50
67545;BME280;54380;47.770;11.150;2022-12-18T02:42:22;95823.97;;;-2.56;71.75
67545;BME280;54380;47.770;11.150;2022-12-18T02:44:54;95819.75;;;-2.57;72.80
67545;BME280;54380;47.770;11.150;2022-12-18T02:47:24;95825.59;;;-2.55;72.42
67545;BME280;54380;47.770;11.150;2022-12-18T02:50:01;95829.81;;;-2.54;72.35
67545;BME280;54380;47.770;11.150;2022-12-18T02:52:31;95825.44;;;-2.53;72.60
67545;BME280;54380;47.770;11.150;2022-12-18T02:55:08;95832.09;;;-2.51;72.80
67545;BME280;54380;47.770;11.150;2022-12-18T02:57:40;95829.38;;;-2.49;73.18
67545;BME280;54380;47.770;11.150;2022-12-18T03:00:12;95830.19;;;-2.49;73.43
67545;BME280;54380;47.770;11.150;2022-12-18T03:02:42;95840.22;;;-2.46;73.63
67545;BME280;54380;47.770;11.150;2022-12-18T03:05:13;95824.88;;;-2.47;71.70
67545;BME280;54380;47.770;11.150;2022-12-18T03:07:42;95822.34;;;-2.57;69.22
67545;BME280;54380;47.770;11.150;2022-12-18T03:10:13;95811.53;;;-2.70;68.66
67545;BME280;54380;47.770;11.150;2022-12-18T03:12:42;95807.22;;;-2.79;68.33
67545;BME280;54380;47.770;11.150;2022-12-18T03:15:13;95814.25;;;-2.90;69.06
67545;BME280;54380;47.770;11.150;2022-12-18T03:17:45;95818.19;;;-2.95;69.52
67545;BME280;54380;47.770;11.150;2022-12-18T03:20:14;95815.50;;;-3.03;68.49
67545;BME280;54380;47.770;11.150;2022-12-18T03:22:41;95822.06;;;-3.09;69.00
67545;BME280;54380;47.770;11.150;2022-12-18T03:25:09;95824.25;;;-3.14;68.38
67545;BME280;54380;47.770;11.150;2022-12-18T03:27:38;95825.53;;;-3.18;68.13
67545;BME280;54380;47.770;11.150;2022-12-18T03:30:11;95818.47;;;-3.26;68.21
67545;BME280;54380;47.770;11.150;2022-12-18T03:32:41;95819.69;;;-3.30;69.20
67545;BME280;54380;47.770;11.150;2022-12-18T03:35:11;95818.22;;;-3.33;68.83
67545;BME280;54380;47.770;11.150;2022-12-18T03:37:39;95813.63;;;-3.39;69.75
67545;BME280;54380;47.770;11.150;2022-12-18T03:40:07;95821.50;;;-3.40;69.26
67545;BME280;54380;47.770;11.150;2022-12-18T03:42:37;95817.44;;;-3.43;68.36
67545;BME280;54380;47.770;11.150;2022-12-18T03:45:11;95808.78;;;-3.51;67.08
67545;BME280;54380;47.770;11.150;2022-12-18T03:47:44;95815.31;;;-3.57;68.96
67545;BME280;54380;47.770;11.150;2022-12-18T03:50:16;95819.50;;;-3.56;69.25
67545;BME280;54380;47.770;11.150;2022-12-18T03:52:48;95819.66;;;-3.58;68.86
67545;BME280;54380;47.770;11.150;2022-12-18T03:55:16;95828.50;;;-3.60;69.20
67545;BME280;54380;47.770;11.150;2022-12-18T03:57:46;95828.91;;;-3.55;70.73
67545;BME280;54380;47.770;11.150;2022-12-18T04:00:14;95826.84;;;-3.51;71.53
67545;BME280;54380;47.770;11.150;2022-12-18T04:03:04;95823.69;;;-3.45;71.15
67545;BME280;54380;47.770;11.150;2022-12-18T04:05:38;95826.25;;;-3.45;70.68
67545;BME280;54380;47.770;11.150;2022-12-18T04:08:06;95827.09;;;-3.45;71.35
67545;BME280;54380;47.770;11.150;2022-12-18T04:10:36;95832.78;;;-3.41;71.21
67545;BME280;54380;47.770;11.150;2022-12-18T04:13:03;95838.75;;;-3.41;71.16
67545;BME280;54380;47.770;11.150;2022-12-18T04:15:30;95847.31;;;-3.40;72.20
67545;BME280;54380;47.770;11.150;2022-12-18T04:17:58;95845.41;;;-3.38;72.56
67545;BME280;54380;47.770;11.150;2022-12-18T04:20:32;95832.38;;;-3.37;72.10
67545;BME280;54380;47.770;11.150;2022-12-18T04:22:59;95834.66;;;-3.34;71.94
67545;BME280;54380;47.770;11.150;2022-12-18T04:25:26;95835.47;;;-3.33;71.11
67545;BME280;54380;47.770;11.150;2022-12-18T04:28:03;95846.91;;;-3.36;69.70
67545;BME280;54380;47.770;11.150;2022-12-18T04:30:30;95841.06;;;-3.38;69.58
67545;BME280;54380;47.770;11.150;2022-12-18T04:32:56;95840.66;;;-3.43;68.79
67545;BME280;54380;47.770;11.150;2022-12-18T04:35:23;95846.09;;;-3.46;69.95
67545;BME280;54380;47.770;11.150;2022-12-18T04:37:51;95851.28;;;-3.46;71.33
67545;BME280;54380;47.770;11.150;2022-12-18T04:40:17;95850.97;;;-3.43;72.17
67545;BME280;54380;47.770;11.150;2022-12-18T04:42:45;95851.38;;;-3.38;72.62
67545;BME280;54380;47.770;11.150;2022-12-18T04:45:12;95852.06;;;-3.36;71.83
67545;BME280;54380;47.770;11.150;2022-12-18T04:47:39;95852.34;;;-3.39;70.77
67545;BME280;54380;47.770;11.150;2022-12-18T04:50:05;95851.16;;;-3.44;69.68
67545;BME280;54380;47.770;11.150;2022-12-18T04:52:32;95850.75;;;-3.49;70.88
67545;BME280;54380;47.770;11.150;2022-12-18T04:55:00;95858.34;;;-3.48;72.53
67545;BME280;54380;47.770;11.150;2022-12-18T04:57:26;95870.16;;;-3.45;72.63
67545;BME280;54380;47.770;11.150;2022-12-18T04:59:53;95855.22;;;-3.42;73.53
67545;BME280;54380;47.770;11.150;2022-12-18T05:02:20;95863.75;;;-3.41;73.54
67545;BME280;54380;47.770;11.150;2022-12-18T05:04:46;95873.00;;;-3.39;73.86
67545;BME280;54380;47.770;11.150;2022-12-18T05:07:13;95865.09;;;-3.37;73.77
67545;BME280;54380;47.770;11.150;2022-12-18T05:09:39;95865.09;;;-3.37;73.63
67545;BME280;54380;47.770;11.150;2022-12-18T05:12:08;95874.78;;;-3.39;72.85
67545;BME280;54380;47.770;11.150;2022-12-18T05:14:34;95875.03;;;-3.42;72.25
67545;BME280;54380;47.770;11.150;2022-12-18T05:17:01;95870.03;;;-3.44;72.89
67545;BME280;54380;47.770;11.150;2022-12-18T05:19:27;95876.78;;;-3.43;72.98
67545;BME280;54380;47.770;11.150;2022-12-18T05:21:54;95884.53;;;-3.43;73.30
67545;BME280;54380;47.770;11.150;2022-12-18T05:24:20;95893.78;;;-3.40;73.55
67545;BME280;54380;47.770;11.150;2022-12-18T05:26:47;95901.25;;;-3.37;73.64
67545;BME280;54380;47.770;11.150;2022-12-18T05:29:15;95900.31;;;-3.36;73.84
67545;BME280;54380;47.770;11.150;2022-12-18T05:31:41;95900.44;;;-3.38;73.59
67545;BME280;54380;47.770;11.150;2022-12-18T05:34:08;95896.50;;;-3.42;73.78
67545;BME280;54380;47.770;11.150;2022-12-18T05:36:36;95906.16;;;-3.44;72.51
67545;BME280;54380;47.770;11.150;2022-12-18T05:39:03;95904.94;;;-3.49;71.80
67545;BME280;54380;47.770;11.150;2022-12-18T05:41:29;95923.00;;;-3.49;72.95
67545;BME280;54380;47.770;11.150;2022-12-18T05:43:58;95917.84;;;-3.49;72.63
67545;BME280;54380;47.770;11.150;2022-12-18T05:46:26;95922.34;;;-3.51;72.47
67545;BME280;54380;47.770;11.150;2022-12-18T05:48:52;95923.13;;;-3.51;72.80
67545;BME280;54380;47.770;11.150;2022-12-18T05:51:19;95916.34;;;-3.52;73.01
67545;BME280;54380;47.770;11.150;2022-12-18T05:53:46;95928.03;;;-3.48;73.71
67545;BME280;54380;47.770;11.150;2022-12-18T05:56:14;95914.03;;;-3.45;73.33
67545;BME280;54380;47.770;11.150;2022-12-18T05:58:42;95917.84;;;-3.49;71.74
67545;BME280;54380;47.770;11.150;2022-12-18T06:01:10;95920.97;;;-3.56;71.30
67545;BME280;54380;47.770;11.150;2022-12-18T06:03:38;95923.00;;;-3.69;68.78
67545;BME280;54380;47.770;11.150;2022-12-18T06:06:12;95930.91;;;-3.80;70.23
67545;BME280;54380;47.770;11.150;2022-12-18T06:08:39;95925.59;;;-3.88;69.52
67545;BME280;54380;47.770;11.150;2022-12-18T06:11:11;95934.69;;;-3.94;69.45
67545;BME280;54380;47.770;11.150;2022-12-18T06:13:38;95920.16;;;-3.95;70.61
67545;BME280;54380;47.770;11.150;2022-12-18T06:16:05;95919.50;;;-3.97;69.29
67545;BME280;54380;47.770;11.150;2022-12-18T06:18:32;95916.09;;;-3.98;68.81
67545;BME280;54380;47.770;11.150;2022-12-18T06:21:00;95924.94;;;-4.00;69.76
67545;BME280;54380;47.770;11.150;2022-12-18T06:23:26;95925.72;;;-4.00;70.82
67545;BME280;54380;47.770;11.150;2022-12-18T06:25:53;95923.44;;;-4.03;70.08
67545;BME280;54380;47.770;11.150;2022-12-18T06:28:20;95921.94;;;-4.05;68.73
67545;BME280;54380;47.770;11.150;2022-12-18T06:30:47;95920.94;;;-4.14;67.60
67545;BME280;54380;47.770;11.150;2022-12-18T06:33:14;95920.69;;;-4.21;69.25
67545;BME280;54380;47.770;11.150;2022-12-18T06:35:41;95925.03;;;-4.21;69.81
67545;BME280;54380;47.770;11.150;2022-12-18T06:38:09;95929.22;;;-4.20;70.83
67545;BME280;54380;47.770;11.150;2022-12-18T06:40:36;95930.72;;;-4.17;71.15
67545;BME280;54380;47.770;11.150;2022-12-18T06:43:03;95921.22;;;-4.17;71.01
67545;BME280;54380;47.770;11.150;2022-12-18T06:45:29;95922.31;;;-4.20;69.32
67545;BME280;54380;47.770;11.150;2022-12-18T06:47:56;95926.13;;;-4.24;68.82
67545;BME280;54380;47.770;11.150;2022-12-18T06:50:24;95930.69;;;-4.27;69.36
67545;BME280;54380;47.770;11.150;2022-12-18T06:52:50;95938.16;;;-4.34;68.90
67545;BME280;54380;47.770;11.150;2022-12-18T06:55:18;95940.75;;;-4.34;70.14
67545;BME280;54380;47.770;11.150;2022-12-18T06:57:45;95937.34;;;-4.34;70.27
67545;BME280;54380;47.770;11.150;2022-12-18T07:00:11;95940.47;;;-4.31;70.06
67545;BME280;54380;47.770;11.150;2022-12-18T07:02:38;95943.06;;;-4.31;71.49
67545;BME280;54380;47.770;11.150;2022-12-18T07:05:06;95949.16;;;-4.22;72.47
67545;BME280;54380;47.770;11.150;2022-12-18T07:07:36;95959.63;;;-4.14;72.80
67545;BME280;54380;47.770;11.150;2022-12-18T07:10:03;95960.75;;;-4.07;73.16
67545;BME280;54380;47.770;11.150;2022-12-18T07:12:31;95955.88;;;-4.00;72.99
67545;BME280;54380;47.770;11.150;2022-12-18T07:14:57;95957.75;;;-3.92;73.13
67545;BME280;54380;47.770;11.150;2022-12-18T07:17:24;95956.44;;;-3.87;72.02
67545;BME280;54380;47.770;11.150;2022-12-18T07:19:51;95954.25;;;-3.91;70.21
67545;BME280;54380;47.770;11.150;2022-12-18T07:22:17;95965.91;;;-3.97;69.56
67545;BME280;54380;47.770;11.150;2022-12-18T07:24:44;95970.66;;;-4.02;69.60
67545;BME280;54380;47.770;11.150;2022-12-18T07:27:10;95975.94;;;-4.04;70.13
67545;BME280;54380;47.770;11.150;2022-12-18T07:29:38;95979.47;;;-4.05;70.09
67545;BME280;54380;47.770;11.150;2022-12-18T07:32:05;95982.88;;;-4.04;69.73
67545;BME280;54380;47.770;11.150;2022-12-18T07:34:31;95981.78;;;-4.02;70.06
67545;BME280;54380;47.770;11.150;2022-12-18T07:36:58;95983.81;;;-3.95;70.97
67545;BME280;54380;47.770;11.150;2022-12-18T07:39:24;95984.13;;;-3.89;71.54
67545;BME280;54380;47.770;11.150;2022-12-18T07:41:51;95988.47;;;-3.80;72.02
67545;BME280;54380;47.770;11.150;2022-12-18T07:44:40;95993.22;;;-3.75;70.95
67545;BME280;54380;47.770;11.150;2022-12-18T07:47:06;95983.44;;;-3.71;70.69
67545;BME280;54380;47.770;11.150;2022-12-18T07:49:37;95976.38;;;-3.69;70.36
67545;BME280;54380;47.770;11.150;2022-12-18T07:52:04;95981.81;;;-3.72;69.26
67545;BME280;54380;47.770;11.150;2022-12-18T07:54:30;95986.03;;;-3.81;68.89
67545;BME280;54380;47.770;11.150;2022-12-18T07:56:57;95986.00;;;-3.91;68.47
67545;BME280;54380;47.770;11.150;2022-12-18T07:59:23;95984.50;;;-3.93;68.33
67545;BME280;54380;47.770;11.150;2022-12-18T08:01:51;95986.56;;;-3.97;68.11
67545;BME280;54380;47.770;11.150;2022-12-18T08:04:18;95995.22;;;-3.98;69.15
67545;BME280;54380;47.770;11.150;2022-12-18T08:06:45;96005.94;;;-3.93;69.97
67545;BME280;54380;47.770;11.150;2022-12-18T08:09:13;96005.97;;;-3.83;71.50
67545;BME280;54380;47.770;11.150;2022-12-18T08:11:40;96006.81;;;-3.73;71.60
67545;BME280;54380;47.770;11.150;2022-12-18T08:14:07;96005.06;;;-3.63;71.27
67545;BME280;54380;47.770;11.150;2022-12-18T08:16:33;96012.81;;;-3.63;70.57
67545;BME280;54380;47.770;11.150;2022-12-18T08:19:01;95999.75;;;-3.61;70.42
67545;BME280;54380;47.770;11.150;2022-12-18T08:21:28;96000.16;;;-3.56;70.65
67545;BME280;54380;47.770;11.150;2022-12-18T08:23:55;96011.44;;;-3.57;69.95
67545;BME280;54380;47.770;11.150;2022-12-18T08:26:23;96008.84;;;-3.67;68.35
67545;BME280;54380;47.770;11.150;2022-12-18T08:28:50;96005.31;;;-3.76;68.19
67545;BME280;54380;47.770;11.150;2022-12-18T08:31:17;96013.44;;;-3.80;67.80
67545;BME280;54380;47.770;11.150;2022-12-18T08:33:43;96013.19;;;-3.87;67.83
67545;BME280;54380;47.770;11.150;2022-12-18T08:36:11;96012.50;;;-3.89;67.57
67545;BME280;54380;47.770;11.150;2022-12-18T08:38:38;96011.13;;;-3.93;67.95
67545;BME280;54380;47.770;11.150;2022-12-18T08:41:05;96007.47;;;-4.00;67.21
67545;BME280;54380;47.770;11.150;2022-12-18T08:43:33;96012.63;;;-4.00;67.84
67545;BME280;54380;47.770;11.150;2022-12-18T08:46:18;96008.69;;;-3.94;68.32
67545;BME280;54380;47.770;11.150;2022-12-18T08:48:45;96011.38;;;-3.96;67.46
67545;BME280;54380;47.770;11.150;2022-12-18T08:51:15;96006.75;;;-4.02;67.34
67545;BME280;54380;47.770;11.150;2022-12-18T08:53:41;96010.00;;;-4.10;67.50
67545;BME280;54380;47.770;11.150;2022-12-18T08:56:08;96004.84;;;-4.10;67.83
67545;BME280;54380;47.770;11.150;2022-12-18T08:58:35;96009.19;;;-4.01;68.54
67545;BME280;54380;47.770;11.150;2022-12-18T09:01:02;96019.41;;;-3.89;70.04
67545;BME280;54380;47.770;11.150;2022-12-18T09:03:29;96012.63;;;-3.81;70.68
67545;BME280;54380;47.770;11.150;2022-12-18T09:05:55;96013.75;;;-3.73;71.31
67545;BME280;54380;47.770;11.150;2022-12-18T09:08:23;96018.09;;;-3.64;70.97
67545;BME280;54380;47.770;11.150;2022-12-18T09:10:50;96014.03;;;-3.57;70.93
67545;BME280;54380;47.770;11.150;2022-12-18T09:13:17;96016.47;;;-3.46;71.04
67545;BME280;54380;47.770;11.150;2022-12-18T09:15:44;96012.94;;;-3.35;71.05
67545;BME280;54380;47.770;11.150;2022-12-18T09:18:11;96013.22;;;-3.28;71.43
67545;BME280;54380;47.770;11.150;2022-12-18T09:20:38;96010.09;;;-3.22;71.49
67545;BME280;54380;47.770;11.150;2022-12-18T09:23:05;96019.72;;;-3.15;71.56
67545;BME280;54380;47.770;11.150;2022-12-18T09:25:33;96012.66;;;-3.13;69.40
67545;BME280;54380;47.770;11.150;2022-12-18T09:28:02;96011.84;;;-3.13;69.06
67545;BME280;54380;47.770;11.150;2022-12-18T09:30:29;96013.59;;;-3.14;68.45
67545;BME280;54380;47.770;11.150;2022-12-18T09:32:55;96011.97;;;-3.15;68.14
67545;BME280;54380;47.770;11.150;2022-12-18T09:35:22;96023.13;;;-3.14;68.93
67545;BME280;54380;47.770;11.150;2022-12-18T09:37:48;96027.06;;;-3.10;68.70
67545;BME280;54380;47.770;11.150;2022-12-18T09:40:15;96023.00;;;-3.13;67.90
67545;BME280;54380;47.770;11.150;2022-12-18T09:42:43;96022.72;;;-3.19;67.05
67545;BME280;54380;47.770;11.150;2022-12-18T09:45:11;96024.06;;;-3.25;66.86
67545;BME280;54380;47.770;11.150;2022-12-18T09:47:39;96024.06;;;-3.25;67.06
67545;BME280;54380;47.770;11.150;2022-12-18T09:50:15;96010.91;;;-3.32;66.27
67545;BME280;54380;47.770;11.150;2022-12-18T09:52:44;96007.53;;;-3.42;65.72
67545;BME280;54380;47.770;11.150;2022-12-18T09:55:13;96011.03;;;-3.43;66.61
67545;BME280;54380;47.770;11.150;2022-12-18T09:57:47;96014.84;;;-3.37;68.23
67545;BME280;54380;47.770;11.150;2022-12-18T10:00:16;96008.75;;;-3.26;68.84
67545;BME280;54380;47.770;11.150;2022-12-18T10:02:44;96014.56;;;-3.15;69.45
67545;BME280;54380;47.770;11.150;2022-12-18T10:05:12;96018.88;;;-3.05;68.85
67545;BME280;54380;47.770;11.150;2022-12-18T10:07:43;96009.63;;;-2.98;68.63
67545;BME280;54380;47.770;11.150;2022-12-18T10:10:14;96015.38;;;-2.95;68.41
67545;BME280;54380;47.770;11.150;2022-12-18T10:12:48;96017.78;;;-2.93;67.35
67545;BME280;54380;47.770;11.150;2022-12-18T10:15:27;96007.34;;;-2.92;67.56
67545;BME280;54380;47.770;11.150;2022-12-18T10:17:58;96005.44;;;-2.90;67.61
67545;BME280;54380;47.770;11.150;2022-12-18T10:20:29;95996.72;;;-2.89;67.36
67545;BME280;54380;47.770;11.150;2022-12-18T10:23:00;95999.53;;;-2.82;68.18
67545;BME280;54380;47.770;11.150;2022-12-18T10:25:30;95996.13;;;-2.73;67.90
67545;BME280;54380;47.770;11.150;2022-12-18T10:28:00;95993.13;;;-2.68;66.97
67545;BME280;54380;47.770;11.150;2022-12-18T10:30:32;95989.75;;;-2.78;66.00
67545;BME280;54380;47.770;11.150;2022-12-18T10:33:00;95991.94;;;-2.83;66.61
67545;BME280;54380;47.770;11.150;2022-12-18T10:35:26;95983.22;;;-2.82;68.00
67545;BME280;54380;47.770;11.150;2022-12-18T10:38:00;95984.19;;;-2.74;68.94
67545;BME280;54380;47.770;11.150;2022-12-18T10:40:27;95976.25;;;-2.62;69.16
67545;BME280;54380;47.770;11.150;2022-12-18T10:43:12;95971.00;;;-2.53;69.19
67545;BME280;54380;47.770;11.150;2022-12-18T10:45:38;95972.75;;;-2.44;68.54
67545;BME280;54380;47.770;11.150;2022-12-18T10:48:16;95965.63;;;-2.32;69.08
67545;BME280;54380;47.770;11.150;2022-12-18T10:50:45;95972.09;;;-2.18;69.25
67545;BME280;54380;47.770;11.150;2022-12-18T10:53:33;95970.53;;;-2.11;67.87
67545;BME280;54380;47.770;11.150;2022-12-18T10:56:01;95969.44;;;-2.08;67.03
67545;BME280;54380;47.770;11.150;2022-12-18T10:58:30;95968.78;;;-2.10;66.11
67545;BME280;54380;47.770;11.150;2022-12-18T11:01:08;95967.22;;;-2.21;65.16
67545;BME280;54380;47.770;11.150;2022-12-18T11:03:36;95975.06;;;-2.40;65.00
67545;BME280;54380;47.770;11.150;2022-12-18T11:06:04;95972.50;;;-2.50;64.73
67545;BME280;54380;47.770;11.150;2022-12-18T11:08:31;95971.47;;;-2.57;64.23
67545;BME280;54380;47.770;11.150;2022-12-18T11:10:58;95979.13;;;-2.66;63.74
67545;BME280;54380;47.770;11.150;2022-12-18T11:13:25;95973.09;;;-2.66;64.37
67545;BME280;54380;47.770;11.150;2022-12-18T11:15:54;95968.22;;;-2.69;64.12
67545;BME280;54380;47.770;11.150;2022-12-18T11:18:22;95970.41;;;-2.74;64.01
67545;BME280;54380;47.770;11.150;2022-12-18T11:20:52;95962.28;;;-2.79;64.13
67545;BME280;54380;47.770;11.150;2022-12-18T11:23:24;95961.63;;;-2.81;64.19
67545;BME280;54380;47.770;11.150;2022-12-18T11:25:51;95962.28;;;-2.79;65.26
67545;BME280;54380;47.770;11.150;2022-12-18T11:28:26;95974.34;;;-2.70;66.53
67545;BME280;54380;47.770;11.150;2022-12-18T11:33:36;95972.16;;;-2.55;67.85
67545;BME280;54380;47.770;11.150;2022-12-18T11:36:04;95967.06;;;-2.47;67.10
67545;BME280;54380;47.770;11.150;2022-12-18T11:38:34;95965.53;;;-2.40;67.57
67545;BME280;54380;47.770;11.150;2022-12-18T11:41:03;95966.84;;;-2.26;68.48
67545;BME280;54380;47.770;11.150;2022-12-18T11:43:32;95956.97;;;-2.13;68.40
67545;BME280;54380;47.770;11.150;2022-12-18T11:46:02;95945.34;;;-2.09;68.11
67545;BME280;54380;47.770;11.150;2022-12-18T11:48:31;95954.47;;;-2.05;68.39
67545;BME280;54380;47.770;11.150;2022-12-18T11:51:01;95946.78;;;-1.96;69.02
67545;BME280;54380;47.770;11.150;2022-12-18T11:53:30;95944.50;;;-1.82;68.80
67545;BME280;54380;47.770;11.150;2022-12-18T11:56:00;95953.66;;;-1.69;68.46
67545;BME280;54380;47.770;11.150;2022-12-18T11:58:42;95955.38;;;-1.60;68.07
67545;BME280;54380;47.770;11.150;2022-12-18T12:01:11;95952.19;;;-1.54;68.06
67545;BME280;54380;47.770;11.150;2022-12-18T12:03:55;95947.25;;;-1.47;68.09
67545;BME280;54380;47.770;11.150;2022-12-18T12:06:28;95947.09;;;-1.46;67.71
67545;BME280;54380;47.770;11.150;2022-12-18T12:09:02;95958.13;;;-1.44;67.50
67545;BME280;54380;47.770;11.150;2022-12-18T12:11:35;95954.09;;;-1.38;67.67
67545;BME280;54380;47.770;11.150;2022-12-18T12:14:08;95948.63;;;-1.35;67.34
67545;BME280;54380;47.770;11.150;2022-12-18T12:16:41;95946.56;;;-1.31;67.52
67545;BME280;54380;47.770;11.150;2022-12-18T12:19:15;95932.78;;;-1.32;66.33
67545;BME280;54380;47.770;11.150;2022-12-18T12:21:46;95936.78;;;-1.38;65.18
67545;BME280;54380;47.770;11.150;2022-12-18T12:24:20;95931.84;;;-1.49;64.19
67545;BME280;54380;47.770;11.150;2022-12-18T12:26:50;95928.38;;;-1.58;64.20
67545;BME280;54380;47.770;11.150;2022-12-18T12:29:23;95936.16;;;-1.58;65.05
67545;BME280;54380;47.770;11.150;2022-12-18T12:31:57;95933.78;;;-1.69;65.90
67545;BME280;54380;47.770;11.150;2022-12-18T12:34:29;95929.31;;;-1.77;66.13
67545;BME280;54380;47.770;11.150;2022-12-18T12:37:07;95928.00;;;-1.81;66.55
67545;BME280;54380;47.770;11.150;2022-12-18T12:39:38;95928.81;;;-1.80;67.19
67545;BME280;54380;47.770;11.150;2022-12-18T12:42:08;95923.34;;;-1.77;67.06
67545;BME280;54380;47.770;11.150;2022-12-18T12:44:56;95921.66;;;-1.68;67.25
67545;BME280;54380;47.770;11.150;2022-12-18T12:47:26;95922.84;;;-1.63;67.05
67545;BME280;54380;47.770;11.150;2022-12-18T12:49:55;95922.38;;;-1.58;67.40
67545;BME280;54380;47.770;11.150;2022-12-18T12:52:27;95924.81;;;-1.57;67.49
67545;BME280;54380;47.770;11.150;2022-12-18T12:54:55;95923.03;;;-1.56;67.34
67545;BME280;54380;47.770;11.150;2022-12-18T12:57:23;95921.44;;;-1.57;67.06
67545;BME280;54380;47.770;11.150;2022-12-18T12:59:56;95928.38;;;-1.58;66.87
67545;BME280;54380;47.770;11.150;2022-12-18T13:02:27;95928.38;;;-1.58;67.36